This is the latest recevied weather packets stored in our database for station/object N6XE. If no packets are shown the sender has not sent any weather packets the latest 10 day(s).
| Time | Temp. | Humidity | Pressure | Rain* | Wind** | Luminosity | Snow |
|---|---|---|---|---|---|---|---|
| 1777311917 | 18.89° C | 57% | 1019.9 hPa | 0 mm | - | - | - |
| 1777310130 | 17.22° C | 61% | 1019.8 hPa | 0 mm | - | - | - |
| 1777308325 | 16.11° C | 65% | 1019.8 hPa | 0 mm | - | - | - |
| 1777305924 | 15° C | 71% | 1019.6 hPa | 0 mm | - | - | - |
| 1777304733 | 15° C | 73% | 1019.6 hPa | 0 mm | - | - | - |
| 1777302332 | 14.44° C | 74% | 1019.6 hPa | 0 mm | - | - | - |
| 1777293920 | 8.89° C | 96% | 1018.6 hPa | 0 mm | - | - | - |
| 1777293318 | 9.44° C | 93% | 1018.6 hPa | 0 mm | - | - | - |
| 1777292115 | 9.44° C | 92% | 1018.5 hPa | 0 mm | - | - | - |
| 1777288523 | 10° C | 87% | 1018.4 hPa | 0 mm | - | - | - |
| 1777287332 | 10.56° C | 86% | 1018.4 hPa | 0 mm | - | - | - |
| 1777286122 | 11.11° C | 85% | 1018.3 hPa | 0 mm | - | - | - |
| 1777281321 | 11.67° C | 83% | 1018.3 hPa | 0 mm | - | - | - |
| 1777274119 | 12.22° C | 82% | 1018.3 hPa | 0 mm | - | - | - |
| 1777271718 | 12.22° C | 80% | 1018.2 hPa | 0 mm | - | - | - |
| 1777263920 | 13.89° C | 68% | 1017.6 hPa | 0 mm | - | - | - |
| 1777259119 | 15° C | 59% | 1016.7 hPa | 0 mm | - | - | - |
| 1777256718 | 16.67° C | 55% | 1016.4 hPa | 0 mm | - | - | - |
| 1777253722 | 17.22° C | 55% | 1016.1 hPa | 0 mm | - | - | - |
| 1777252544 | 18.33° C | 53% | 1016 hPa | 0 mm | - | - | - |
| 1777250117 | 19.44° C | 54% | 1015.9 hPa | 0 mm | - | - | - |
| 1777249536 | 18.89° C | 56% | 1015.8 hPa | 0 mm | - | - | - |
| 1777244733 | 18.33° C | 61% | 1015.8 hPa | 0 mm | - | - | - |
| 1777244119 | 18.89° C | 61% | 1015.9 hPa | 0 mm | - | - | - |
| 1777242927 | 18.89° C | 59% | 1016 hPa | 0 mm | - | - | - |
* Rain latest hour (hover to see other rain measurements)
** Current wind speed in m/s (hover to see current wind gust speed)